Time;durP1;ratioP1;P1;durP2;ratioP2;P2;SDS_P1;SDS_P2;PMS_P1;PMS_P2;Temp;Humidity;BMP_temperature;BMP_pressure;BME280_temperature;BME280_humidity;BME280_pressure;Samples;Min_cycle;Max_cycle;Signal;HPM_P1;HPM_P2
2022/01/22 00:01:56;;;;;;;4.10;2.90;;;;;;;13.48;40.87;98216.34;1723501;81;23344;-64
2022/01/22 00:04:23;;;;;;;5.70;2.70;;;;;;;13.48;41.09;98205.66;1708886;83;20983;-63
2022/01/22 00:06:51;;;;;;;5.50;2.95;;;;;;;13.69;40.61;98219.95;1723267;81;20921;-64
2022/01/22 00:09:24;;;;;;;4.90;2.77;;;;;;;13.24;41.56;98220.67;1716801;81;20910;-64
2022/01/22 00:11:52;;;;;;;6.35;2.65;;;;;;;12.93;42.46;98219.33;1723287;83;20913;-64
2022/01/22 00:14:23;;;;;;;6.97;2.85;;;;;;;13.39;41.58;98213.14;1715992;83;21175;-63
2022/01/22 00:16:55;;;;;;;3.60;2.77;;;;;;;14.24;39.96;98208.25;1705260;82;20847;-64
2022/01/22 00:19:22;;;;;;;3.33;2.58;;;;;;;13.86;40.12;98206.84;1709099;83;20992;-63
2022/01/22 00:21:49;;;;;;;9.40;3.02;;;;;;;13.73;40.13;98215.81;1714776;82;20936;-64
2022/01/22 00:24:16;;;;;;;4.85;2.40;;;;;;;13.74;39.79;98215.30;1724412;83;20980;-63
2022/01/22 00:26:43;;;;;;;5.17;3.20;;;;;;;13.63;39.80;98219.52;1720567;82;21899;-64
2022/01/22 00:29:10;;;;;;;6.87;2.85;;;;;;;13.55;39.87;98219.28;1711251;83;20919;-64
2022/01/22 00:31:39;;;;;;;5.12;2.70;;;;;;;13.78;39.36;98209.29;1729508;81;20968;-65
2022/01/22 00:34:07;;;;;;;4.33;2.62;;;;;;;13.81;39.36;98219.55;1722449;83;20957;-64
2022/01/22 00:36:35;;;;;;;7.70;2.92;;;;;;;13.87;44.11;98219.18;1717822;82;21132;-64
2022/01/22 00:39:01;;;;;;;5.00;2.37;;;;;;;13.85;39.56;98231.41;1712386;83;21174;-64
2022/01/22 00:41:28;;;;;;;9.20;3.35;;;;;;;13.89;39.51;98224.61;1713756;82;21002;-64
2022/01/22 00:43:56;;;;;;;3.65;2.35;;;;;;;13.83;40.62;98225.48;1717120;81;20984;-64
2022/01/22 00:46:22;;;;;;;6.33;3.30;;;;;;;13.88;40.60;98234.16;1725239;81;21448;-64
2022/01/22 00:48:48;;;;;;;3.58;2.50;;;;;;;14.05;39.77;98219.19;1711534;83;20912;-64
2022/01/22 00:51:15;;;;;;;4.28;2.75;;;;;;;13.97;39.80;98227.51;1710562;81;21151;-64
2022/01/22 00:53:41;;;;;;;4.95;2.33;;;;;;;14.03;39.46;98225.27;1727916;83;21719;-64
2022/01/22 00:56:07;;;;;;;5.97;2.83;;;;;;;13.65;60.89;98226.78;1718182;83;20923;-64
2022/01/22 00:58:34;;;;;;;3.17;2.50;;;;;;;13.84;46.05;98215.61;1710309;83;21050;-64
2022/01/22 01:01:00;;;;;;;4.37;2.62;;;;;;;13.06;43.08;98213.89;1721690;81;21043;-63
2022/01/22 01:03:31;;;;;;;4.35;2.58;;;;;;;12.70;43.56;98213.69;1717266;81;21993;-63
2022/01/22 01:05:55;;;;;;;4.47;2.50;;;;;;;12.76;42.93;98219.52;1719805;82;21584;-63
2022/01/22 01:08:22;;;;;;;4.35;2.70;;;;;;;12.61;42.87;98210.48;1715135;81;20928;-64
2022/01/22 01:10:49;;;;;;;8.28;2.12;;;;;;;12.78;42.54;98213.44;1713970;83;20979;-64
2022/01/22 01:13:16;;;;;;;4.58;2.62;;;;;;;12.31;43.39;98220.03;1734106;81;20975;-63
2022/01/22 01:15:56;;;;;;;2.22;2.02;;;;;;;12.30;43.55;98219.75;1710224;81;21798;-63
2022/01/22 01:34:14;;;;;;;3.08;1.90;;;;;;;12.43;43.41;98226.88;1708787;83;21494;-62
2022/01/22 01:36:41;;;;;;;2.52;2.10;;;;;;;11.99;44.19;98237.77;1739651;82;20994;-64
2022/01/22 01:39:12;;;;;;;3.58;2.35;;;;;;;11.65;45.04;98237.50;1683056;83;21507;-64
2022/01/22 01:41:49;;;;;;;2.95;1.87;;;;;;;11.41;45.61;98238.15;1739660;82;21178;-64
2022/01/22 01:44:07;;;;;;;2.98;2.20;;;;;;;11.25;45.87;98241.72;1722056;83;20950;-64
2022/01/22 01:46:58;;;;;;;2.72;1.80;;;;;;;11.32;45.72;98232.70;1735690;82;20907;-64
2022/01/22 01:49:26;;;;;;;3.37;2.25;;;;;;;11.20;45.87;98248.17;1699967;82;20993;-64
2022/01/22 01:51:56;;;;;;;5.12;2.50;;;;;;;11.27;45.73;98250.31;1742832;82;20955;-64
2022/01/22 01:54:33;;;;;;;3.92;1.90;;;;;;;11.23;45.62;98248.59;1716072;82;21104;-64
2022/01/22 01:59:40;;;;;;;3.30;2.20;;;;;;;11.29;45.29;98253.62;1716354;81;20921;-64
2022/01/22 02:02:08;;;;;;;3.58;2.40;;;;;;;11.15;45.66;98246.13;1733450;81;20974;-64
2022/01/22 02:04:35;;;;;;;2.50;2.05;;;;;;;11.11;45.57;98253.69;1739533;82;20958;-63
2022/01/22 02:07:02;;;;;;;3.60;2.47;;;;;;;11.18;45.44;98243.86;1710565;83;21172;-64
2022/01/22 02:09:31;;;;;;;3.37;2.30;;;;;;;11.13;45.34;98241.52;1733650;82;21469;-64
2022/01/22 02:12:14;;;;;;;4.08;2.12;;;;;;;10.98;45.68;98238.20;1721845;82;21046;-64
2022/01/22 02:25:32;;;;;;;3.83;2.37;;;;;;;10.71;46.17;98242.67;1716421;83;20964;-64
2022/01/22 02:28:03;;;;;;;3.55;2.52;;;;;;;10.76;46.14;98235.41;1719562;82;21457;-64
2022/01/22 02:30:35;;;;;;;3.95;2.42;;;;;;;10.75;46.83;98233.26;1720997;81;20984;-64
2022/01/22 02:35:42;;;;;;;2.25;1.60;;;;;;;10.77;45.99;98239.19;1718170;81;20945;-64
2022/01/22 02:38:10;;;;;;;6.55;2.95;;;;;;;10.81;45.90;98232.46;1721021;81;21018;-63
2022/01/22 02:40:42;;;;;;;3.58;2.17;;;;;;;10.95;45.40;98235.97;1728258;81;21054;-64
2022/01/22 02:43:01;;;;;;;4.10;2.70;;;;;;;10.86;45.53;98240.66;1711023;81;20864;-65
2022/01/22 02:45:31;;;;;;;3.92;2.40;;;;;;;10.98;45.44;98231.05;1725580;81;21171;-64
2022/01/22 02:47:56;;;;;;;3.75;2.42;;;;;;;10.76;45.83;98238.08;1711809;81;21536;-64
2022/01/22 02:50:23;;;;;;;3.05;2.75;;;;;;;10.68;46.04;98232.43;1719791;81;20927;-64
2022/01/22 02:52:49;;;;;;;4.42;3.17;;;;;;;10.69;46.10;98231.92;1718261;81;21006;-64
2022/01/22 02:55:17;;;;;;;4.92;2.55;;;;;;;10.73;46.12;98237.97;1718571;81;36150;-64
2022/01/22 02:57:45;;;;;;;3.72;2.72;;;;;;;10.70;45.97;98241.02;1724952;81;21979;-65
2022/01/22 03:00:17;;;;;;;3.85;2.02;;;;;;;10.53;46.20;98245.88;1723792;81;21518;-64
2022/01/22 03:02:44;;;;;;;3.37;2.15;;;;;;;10.86;45.33;98245.98;1721974;82;20953;-64
2022/01/22 03:05:10;;;;;;;3.33;2.20;;;;;;;10.87;44.96;98241.48;1721705;81;21466;-64
2022/01/22 03:07:40;;;;;;;2.60;1.98;;;;;;;10.81;45.28;98252.92;1731891;81;21039;-64
2022/01/22 03:10:08;;;;;;;3.08;1.75;;;;;;;10.64;45.61;98255.11;1720738;81;22372;-64
2022/01/22 03:28:01;;;;;;;4.95;3.37;;;;;;;10.52;45.91;98262.03;1721116;82;21419;-65
2022/01/22 03:30:28;;;;;;;6.00;3.00;;;;;;;10.33;45.92;98260.11;1729864;81;20976;-65
2022/01/22 03:32:56;;;;;;;4.80;3.37;;;;;;;10.44;45.84;98258.22;1720946;81;20865;-65
2022/01/22 03:37:52;;;;;;;6.08;3.42;;;;;;;10.48;45.69;98255.48;1730327;82;21520;-64
2022/01/22 03:40:21;;;;;;;8.03;3.52;;;;;;;17.16;36.80;98231.77;1734025;81;20932;-65
2022/01/22 03:42:48;;;;;;;4.35;3.22;;;;;;;15.64;35.37;98233.70;1718891;81;20941;-64
2022/01/22 03:45:15;;;;;;;6.08;4.15;;;;;;;13.88;37.40;98240.34;1730218;81;20995;-63
2022/01/22 03:47:42;;;;;;;7.15;4.40;;;;;;;11.87;41.58;98241.29;1731217;82;21068;-63
2022/01/22 03:50:10;;;;;;;7.05;4.70;;;;;;;11.35;42.88;98263.43;1726107;82;20923;-62
2022/01/22 03:52:37;;;;;;;7.28;4.70;;;;;;;11.34;42.91;98245.84;1717746;81;20967;-65
2022/01/22 03:55:09;;;;;;;7.87;3.77;;;;;;;11.47;42.41;98240.51;1692879;83;20946;-63
2022/01/22 03:57:54;;;;;;;6.28;4.62;;;;;;;11.19;43.07;98240.69;1706806;83;20878;-64
2022/01/22 04:00:22;;;;;;;7.12;3.87;;;;;;;10.86;43.68;98238.00;1717791;81;21169;-65
2022/01/22 04:03:26;;;;;;;5.78;3.42;;;;;;;10.75;44.00;98240.41;1711973;82;20983;-64
2022/01/22 04:05:35;;;;;;;5.30;3.52;;;;;;;11.21;43.12;98243.16;1714423;83;20877;-64
2022/01/22 04:08:22;;;;;;;7.45;4.05;;;;;;;10.85;43.69;98241.66;1716728;83;20971;-64
2022/01/22 04:10:29;;;;;;;5.30;3.62;;;;;;;10.78;43.95;98240.02;1695030;82;20960;-65
2022/01/22 04:13:03;;;;;;;5.45;3.90;;;;;;;10.88;43.63;98227.97;1704610;83;21143;-64
2022/01/22 04:15:30;;;;;;;4.95;2.90;;;;;;;11.01;43.48;98232.48;1714936;81;20976;-65
2022/01/22 04:26:56;;;;;;;6.25;3.72;;;;;;;11.75;41.52;98221.14;1718935;83;21173;-64
2022/01/22 04:28:42;;;;;;;5.45;3.58;;;;;;;11.81;41.84;98227.48;1706859;83;21005;-64
2022/01/22 04:31:09;;;;;;;4.47;3.60;;;;;;;11.80;43.75;98230.66;1719120;81;20972;-64
2022/01/22 04:33:35;;;;;;;6.08;3.85;;;;;;;10.64;50.21;98233.84;1720781;82;20926;-64
2022/01/22 04:36:02;;;;;;;5.72;3.10;;;;;;;19.93;39.55;98205.27;1709176;83;20845;-64
2022/01/22 04:38:28;;;;;;;6.00;3.77;;;;;;;15.90;38.13;98217.11;1718567;82;21166;-64
2022/01/22 04:40:54;;;;;;;6.80;4.35;;;;;;;15.07;38.28;98216.42;1703893;83;20880;-64
2022/01/22 04:43:21;;;;;;;6.25;3.85;;;;;;;14.65;37.70;98218.80;1714605;82;21486;-64
2022/01/22 04:45:55;;;;;;;7.70;4.30;;;;;;;14.43;37.67;98226.48;1719736;81;20992;-64
2022/01/22 04:56:29;;;;;;;7.35;3.85;;;;;;;13.34;83.43;98229.52;1720703;83;20976;-65
2022/01/22 04:58:55;;;;;;;8.98;3.98;;;;;;;14.24;54.76;98235.52;1689362;82;21034;-64
2022/01/22 05:01:22;;;;;;;6.22;4.20;;;;;;;23.12;35.84;98204.52;1717697;81;20879;-64
2022/01/22 05:03:53;;;;;;;5.62;3.67;;;;;;;22.07;30.79;98206.58;1731283;82;21154;-64
2022/01/22 05:06:31;;;;;;;5.30;3.00;;;;;;;19.87;33.14;98218.44;1620037;86;21035;-64
2022/01/22 05:08:59;;;;;;;4.95;3.65;;;;;;;19.76;32.43;98213.53;1712249;83;20913;-64
2022/01/22 05:11:27;;;;;;;6.40;3.58;;;;;;;16.81;34.83;98220.91;1677086;83;20995;-64
2022/01/22 05:13:56;;;;;;;7.33;4.12;;;;;;;14.02;40.82;98234.34;1724908;83;20960;-64
2022/01/22 05:16:22;;;;;;;6.62;3.58;;;;;;;13.61;40.84;98235.75;1719363;81;21157;-64
2022/01/22 05:19:00;;;;;;;8.20;4.33;;;;;;;13.37;42.43;98227.76;1708138;83;21652;-64
2022/01/22 05:21:24;;;;;;;6.20;3.50;;;;;;;13.44;42.24;98230.67;1715028;83;20924;-63
2022/01/22 05:23:53;;;;;;;7.60;4.25;;;;;;;17.32;56.45;98210.52;1683958;83;20988;-64
2022/01/22 05:37:11;;;;;;;;;;;;;;;17.67;31.43;98207.09;1728065;81;20921;-63
2022/01/22 05:39:38;;;;;;;5.00;3.20;;;;;;;17.76;31.18;98211.80;1686009;84;20178;-65
2022/01/22 05:42:07;;;;;;;6.70;3.95;;;;;;;17.70;31.08;98214.67;1716541;83;21410;-64
2022/01/22 05:44:35;;;;;;;5.97;3.40;;;;;;;17.60;30.99;98215.31;1723909;81;21002;-64
2022/01/22 05:47:05;;;;;;;6.72;3.85;;;;;;;17.54;36.04;98217.66;1726713;81;21351;-64
2022/01/22 05:49:38;;;;;;;5.58;3.47;;;;;;;17.92;30.57;98212.02;1724778;81;21121;-63
2022/01/22 05:52:06;;;;;;;5.83;3.95;;;;;;;17.86;30.30;98207.09;1711332;83;20865;-63
2022/01/22 06:00:06;;;;;;;5.65;3.83;;;;;;;17.71;30.37;98210.38;1714713;82;21422;-65
2022/01/22 06:02:34;;;;;;;8.58;4.53;;;;;;;17.95;30.10;98212.88;1745055;82;21001;-65
2022/01/22 06:05:01;;;;;;;7.37;4.85;;;;;;;17.14;31.34;98219.11;1720425;81;20907;-65
2022/01/22 06:07:28;;;;;;;5.17;3.55;;;;;;;17.07;31.42;98219.80;1737240;82;21558;-65
2022/01/22 06:10:14;;;;;;;4.80;3.75;;;;;;;17.20;30.95;98219.48;1730947;80;21009;-65
2022/01/22 06:12:42;;;;;;;5.87;4.20;;;;;;;16.81;31.75;98225.76;1700329;81;21390;-64
2022/01/22 06:14:57;;;;;;;4.45;3.65;;;;;;;16.82;31.96;98222.00;1720882;82;20967;-65
2022/01/22 06:17:23;;;;;;;5.17;4.17;;;;;;;16.66;38.93;98225.44;1643060;84;20923;-63
2022/01/22 06:19:51;;;;;;;5.78;4.28;;;;;;;16.90;32.31;98229.67;1714857;81;21196;-65
2022/01/22 06:22:18;;;;;;;6.05;3.52;;;;;;;16.59;32.36;98231.48;1717994;81;21534;-64
2022/01/22 06:24:44;;;;;;;8.10;3.87;;;;;;;16.56;90.36;98234.64;1722962;83;20900;-64
2022/01/22 06:27:11;;;;;;;9.18;3.98;;;;;;;16.36;41.56;98232.34;1723399;83;21411;-65
2022/01/22 06:29:37;;;;;;;5.10;3.67;;;;;;;16.00;37.83;98228.09;1712359;83;20913;-64
2022/01/22 06:32:06;;;;;;;6.37;3.42;;;;;;;15.51;36.06;98233.09;1731528;81;21344;-66
2022/01/22 06:34:34;;;;;;;5.25;3.47;;;;;;;15.51;38.65;98235.26;1714373;82;21089;-65
2022/01/22 06:37:00;;;;;;;6.72;3.77;;;;;;;16.05;35.17;98239.45;1745748;82;20937;-63
2022/01/22 06:39:27;;;;;;;8.00;4.25;;;;;;;15.33;35.34;98240.64;1693266;83;21520;-65
2022/01/22 06:42:12;;;;;;;5.95;3.90;;;;;;;15.02;35.94;98247.09;1714790;82;20915;-67
2022/01/22 06:44:52;;;;;;;6.85;4.00;;;;;;;15.24;35.56;98240.70;1732253;82;21196;-64
2022/01/22 06:47:27;;;;;;;6.35;4.50;;;;;;;15.19;35.29;98238.72;1703365;82;21192;-65
2022/01/22 06:50:01;;;;;;;9.33;5.62;;;;;;;15.69;37.52;98237.02;1715993;83;20960;-66
2022/01/22 06:52:38;;;;;;;7.12;5.10;;;;;;;15.55;34.92;98243.12;1691001;83;21006;-65
2022/01/22 06:55:07;;;;;;;7.70;4.75;;;;;;;15.26;35.99;98240.77;1727048;81;21011;-63
2022/01/22 06:57:35;;;;;;;9.63;5.92;;;;;;;15.03;35.72;98247.91;1718901;83;21141;-65
2022/01/22 07:00:05;;;;;;;9.60;5.92;;;;;;;14.76;36.06;98259.50;1698766;83;21030;-66
2022/01/22 07:02:32;;;;;;;8.65;4.40;;;;;;;14.66;40.55;98261.91;1671459;84;21020;-65
2022/01/22 07:04:58;;;;;;;6.17;4.35;;;;;;;14.78;38.33;98256.89;1698807;84;21012;-62
2022/01/22 07:07:35;;;;;;;5.72;3.72;;;;;;;14.70;38.07;98261.22;1691745;82;21125;-62
2022/01/22 07:10:01;;;;;;;5.80;3.80;;;;;;;14.67;42.54;98268.39;1700945;82;21865;-66
2022/01/22 07:12:32;;;;;;;6.70;4.12;;;;;;;14.55;39.04;98270.68;1699717;84;20946;-64
2022/01/22 07:14:58;;;;;;;6.60;4.10;;;;;;;14.55;43.47;98268.83;1704832;82;20950;-64
2022/01/22 07:17:24;;;;;;;5.70;3.77;;;;;;;14.97;38.16;98264.88;1703110;84;20915;-67
2022/01/22 07:19:54;;;;;;;5.95;4.33;;;;;;;14.65;89.27;98275.80;1697897;84;20958;-65
2022/01/22 07:22:47;;;;;;;5.97;4.00;;;;;;;14.59;41.79;98280.73;1691839;83;21197;-64
2022/01/22 07:25:23;;;;;;;5.08;3.85;;;;;;;20.93;52.34;98258.98;1692917;84;20970;-66
2022/01/22 07:27:55;;;;;;;5.58;4.05;;;;;;;16.34;36.97;98277.39;1696596;84;20990;-66
2022/01/22 07:30:22;;;;;;;5.90;3.87;;;;;;;15.43;40.95;98285.14;1674591;83;21455;-63
2022/01/22 07:32:49;;;;;;;8.53;4.55;;;;;;;15.17;38.47;98280.17;1684817;84;20986;-67
2022/01/22 07:35:17;;;;;;;7.70;5.22;;;;;;;14.99;38.24;98285.58;1700605;84;23379;-65
2022/01/22 07:37:45;;;;;;;9.30;4.97;;;;;;;14.70;38.71;98281.84;1694597;84;22184;-65
2022/01/22 07:40:13;;;;;;;8.38;5.37;;;;;;;20.84;43.57;98261.38;1687889;84;20999;-64
2022/01/22 07:42:44;;;;;;;6.72;5.05;;;;;;;19.36;33.59;98273.31;1689623;84;20990;-65
2022/01/22 07:45:29;;;;;;;10.28;5.42;;;;;;;19.51;33.04;98272.66;1689074;83;21062;-63
2022/01/22 07:48:01;;;;;;;10.93;4.72;;;;;;;17.59;38.12;98273.39;1679594;84;21173;-65
2022/01/22 07:50:35;;;;;;;9.43;6.70;;;;;;;17.74;88.77;98288.42;1661664;84;20956;-66
2022/01/22 07:53:02;;;;;;;11.45;8.28;;;;;;;17.49;35.67;98274.53;1700035;84;20883;-65
2022/01/22 07:55:30;;;;;;;12.23;7.67;;;;;;;17.27;34.77;98273.06;1695090;84;21480;-63
2022/01/22 07:57:56;;;;;;;11.80;6.85;;;;;;;20.86;31.47;98270.55;1684673;83;21017;-63
2022/01/22 08:00:24;;;;;;;12.78;6.55;;;;;;;20.64;29.42;98282.92;1714717;81;22971;-65
2022/01/22 08:02:51;;;;;;;8.73;5.87;;;;;;;18.59;31.68;98281.35;1745775;81;20970;-66
2022/01/22 08:05:38;;;;;;;6.80;3.98;;;;;;;24.55;28.15;98271.70;1642344;86;21026;-65
2022/01/22 08:08:16;;;;;;;8.03;4.42;;;;;;;21.71;27.23;98276.71;1576888;89;21010;-64
2022/01/22 08:11:01;;;;;;;14.68;8.40;;;;;;;18.85;31.68;98288.13;1689295;81;21468;-64
2022/01/22 08:13:29;;;;;;;9.90;5.15;;;;;;;17.52;37.71;98300.94;1709463;83;21110;-63
2022/01/22 08:15:56;;;;;;;7.42;4.90;;;;;;;15.99;39.98;98314.14;1723382;81;20880;-62
2022/01/22 08:18:23;;;;;;;4.90;3.58;;;;;;;15.48;37.61;98312.09;1723442;81;20946;-64
2022/01/22 08:20:51;;;;;;;5.80;4.08;;;;;;;14.80;53.61;98307.55;1704816;83;21032;-62
2022/01/22 08:23:29;;;;;;;6.33;4.12;;;;;;;14.70;46.54;98313.41;1605446;88;21547;-63
2022/01/22 08:26:11;;;;;;;5.62;4.22;;;;;;;14.68;42.37;98308.81;1715657;83;21236;-64
2022/01/22 08:28:54;;;;;;;5.93;4.17;;;;;;;14.79;42.61;98320.12;1703772;83;20888;-64
2022/01/22 08:31:37;;;;;;;4.58;3.50;;;;;;;14.83;41.96;98322.63;1721275;81;20938;-65
2022/01/22 08:36:39;;;;;;;5.65;3.85;;;;;;;15.07;46.17;98328.12;1729034;81;21744;-63
2022/01/22 08:39:06;;;;;;;4.95;4.15;;;;;;;15.02;42.79;98331.45;1710026;83;21238;-65
2022/01/22 08:41:34;;;;;;;5.72;4.08;;;;;;;14.51;41.27;98339.91;1726120;82;20904;-64
2022/01/22 08:44:01;;;;;;;6.78;3.87;;;;;;;14.56;41.04;98340.06;1727327;82;20994;-63
2022/01/22 08:46:28;;;;;;;5.67;3.85;;;;;;;14.60;41.29;98343.12;1715008;81;20975;-63
2022/01/22 08:48:55;;;;;;;6.78;3.35;;;;;;;14.83;40.48;98341.37;1711406;83;20900;-64
2022/01/22 08:51:22;;;;;;;4.40;3.00;;;;;;;14.56;43.50;98349.42;1717017;83;21407;-64
2022/01/22 08:53:51;;;;;;;5.58;3.40;;;;;;;14.45;41.86;98354.16;1725363;82;21443;-64
2022/01/22 08:56:18;;;;;;;3.85;3.12;;;;;;;14.80;48.83;98357.08;1719050;83;21512;-64
2022/01/22 08:58:46;;;;;;;5.70;3.45;;;;;;;15.22;42.70;98357.48;1714076;83;21103;-63
2022/01/22 09:01:20;;;;;;;6.70;4.05;;;;;;;15.13;49.41;98366.03;1718773;81;20901;-62
2022/01/22 09:03:49;;;;;;;6.60;4.65;;;;;;;15.28;42.40;98375.82;1694989;83;21157;-63
2022/01/22 09:06:18;;;;;;;8.40;4.92;;;;;;;14.88;41.65;98378.20;1714279;81;20913;-65
2022/01/22 09:09:11;;;;;;;13.62;6.35;;;;;;;15.10;70.12;98382.03;1717322;83;20869;-65
2022/01/22 09:11:52;;;;;;;13.62;7.85;;;;;;;14.85;74.97;98386.68;1717374;83;20896;-64
2022/01/22 09:14:21;;;;;;;13.62;8.43;;;;;;;15.58;51.85;98394.63;1673220;82;20882;-66
2022/01/22 09:16:52;;;;;;;11.90;8.03;;;;;;;14.96;43.77;98390.47;1740773;82;21179;-65
2022/01/22 09:19:23;;;;;;;9.48;6.05;;;;;;;15.26;42.70;98388.63;1705978;81;20963;-65
2022/01/22 09:21:48;;;;;;;10.05;5.97;;;;;;;15.47;42.05;98395.39;1696908;83;20994;-67
2022/01/22 09:24:16;;;;;;;7.78;5.03;;;;;;;15.16;42.38;98396.39;1716473;83;20930;-64
2022/01/22 09:26:44;;;;;;;7.50;5.55;;;;;;;14.84;43.45;98404.59;1717248;83;21466;-63
2022/01/22 09:29:11;;;;;;;9.45;6.37;;;;;;;14.76;43.71;98400.05;1705683;83;21220;-64
2022/01/22 09:31:38;;;;;;;9.20;5.70;;;;;;;14.80;43.44;98398.58;1726783;81;21493;-64
2022/01/22 09:34:07;;;;;;;12.90;7.58;;;;;;;14.80;43.15;98407.95;1719529;83;20956;-62
2022/01/22 09:36:51;;;;;;;11.63;8.38;;;;;;;14.96;42.31;98407.87;1715204;83;20909;-63
2022/01/22 09:39:23;;;;;;;12.80;8.05;;;;;;;14.77;42.32;98416.42;1712563;83;21378;-63
2022/01/22 09:41:51;;;;;;;9.70;6.47;;;;;;;14.26;43.11;98415.33;1717230;82;21787;-62
2022/01/22 09:44:33;;;;;;;6.22;4.92;;;;;;;14.46;42.15;98423.22;1721578;82;20861;-65
2022/01/22 09:47:20;;;;;;;6.25;3.87;;;;;;;14.52;41.90;98417.80;1709729;81;21642;-62
2022/01/22 09:49:49;;;;;;;3.67;2.65;;;;;;;14.67;42.03;98422.30;1712709;82;21051;-62
2022/01/22 09:52:20;;;;;;;5.08;3.80;;;;;;;14.65;41.16;98428.91;1712288;81;21004;-64
2022/01/22 09:54:58;;;;;;;4.70;2.20;;;;;;;14.24;41.37;98442.82;1736137;82;21190;-63
2022/01/22 09:57:29;;;;;;;4.33;1.82;;;;;;;13.97;41.03;98432.87;1714617;83;21078;-65
2022/01/22 09:59:55;;;;;;;2.17;1.40;;;;;;;13.91;41.08;98432.91;1719045;81;20837;-65
2022/01/22 10:02:43;;;;;;;2.27;1.75;;;;;;;13.33;42.11;98441.55;1721230;83;21487;-65
2022/01/22 10:05:39;;;;;;;2.72;2.10;;;;;;;13.14;42.93;98443.27;1716707;83;21007;-67
2022/01/22 10:08:31;;;;;;;3.40;2.00;;;;;;;13.49;43.60;98441.08;1563783;90;21176;-65
2022/01/22 10:11:20;;;;;;;3.55;2.50;;;;;;;14.21;43.38;98451.28;1690760;81;20965;-65
2022/01/22 10:13:59;;;;;;;2.47;1.92;;;;;;;14.72;43.18;98445.20;1713104;83;20924;-72
2022/01/22 10:16:33;;;;;;;2.20;1.50;;;;;;;14.92;43.23;98447.66;1718647;81;20949;-67
2022/01/22 10:19:21;;;;;;;2.47;1.90;;;;;;;14.89;44.13;98453.45;1725985;83;20972;-64
2022/01/22 10:21:59;;;;;;;2.77;2.08;;;;;;;15.14;43.99;98450.72;1718333;83;21257;-65
2022/01/22 10:30:07;;;;;;;2.85;2.20;;;;;;;15.42;43.54;98463.05;1720595;81;21454;-65
2022/01/22 10:35:39;;;;;;;2.50;1.90;;;;;;;15.24;42.70;98471.92;1527937;91;21205;-66
2022/01/22 10:38:24;;;;;;;3.83;2.22;;;;;;;15.01;43.61;98474.46;1563009;89;21483;-64
2022/01/22 10:40:56;;;;;;;2.12;1.55;;;;;;;15.22;42.57;98464.64;1631284;83;21032;-66
2022/01/22 10:43:32;;;;;;;3.02;1.90;;;;;;;15.46;41.87;98462.91;1705652;84;21457;-64
2022/01/22 10:46:32;;;;;;;2.33;1.70;;;;;;;15.60;41.93;98464.39;1693231;82;20970;-67
2022/01/22 10:48:59;;;;;;;2.55;1.55;;;;;;;15.81;42.07;98461.73;1687824;84;21545;-65
2022/01/22 10:51:28;;;;;;;2.58;1.40;;;;;;;15.75;42.46;98467.48;1699820;84;20956;-66
2022/01/22 10:54:00;;;;;;;2.40;1.60;;;;;;;15.63;92.33;98485.39;1704803;82;20915;-66
2022/01/22 10:56:31;;;;;;;2.02;1.55;;;;;;;15.67;58.27;98481.20;1705612;82;21122;-65
2022/01/22 10:59:09;;;;;;;1.77;1.45;;;;;;;14.52;50.71;98494.61;1736889;81;20926;-66
2022/01/22 11:01:48;;;;;;;2.87;2.00;;;;;;;14.44;46.33;98501.05;1726094;81;21165;-64
2022/01/22 11:04:18;;;;;;;4.87;3.80;;;;;;;13.76;95.40;98514.74;1710238;83;20829;-66
2022/01/22 11:06:57;;;;;;;5.97;4.40;;;;;;;22.25;43.51;98495.02;1707890;83;21471;-66
2022/01/22 11:09:24;;;;;;;4.65;3.33;;;;;;;21.42;34.83;98509.61;1719504;83;21430;-66
2022/01/22 11:11:51;;;;;;;11.03;6.12;;;;;;;20.05;50.63;98519.03;1709605;83;20973;-66
2022/01/22 11:14:18;;;;;;;5.25;3.42;;;;;;;22.80;40.52;98508.34;1717869;81;21160;-65
2022/01/22 11:16:46;;;;;;;4.22;1.67;;;;;;;21.02;95.73;98868.41;1724094;81;20929;-64
2022/01/22 11:19:22;;;;;;;2.45;1.80;;;;;;;27.64;100.00;98686.53;1719710;83;20919;-64
2022/01/22 11:21:51;;;;;;;1.40;1.17;;;;;;;28.40;100.00;98512.21;1708145;83;20979;-63
2022/01/22 11:24:21;;;;;;;1.35;1.17;;;;;;;28.68;35.08;98499.52;1723714;81;21034;-63
2022/01/22 11:27:00;;;;;;;2.85;1.87;;;;;;;28.38;31.24;98508.98;1723178;83;21163;-63
2022/01/22 11:29:46;;;;;;;1.60;1.45;;;;;;;27.74;27.47;98509.53;1713666;83;20967;-62
2022/01/22 11:32:14;;;;;;;2.45;1.92;;;;;;;27.27;24.62;98512.06;1723012;81;20901;-65
2022/01/22 11:34:42;;;;;;;4.10;2.42;;;;;;;27.25;24.06;98521.13;1715507;83;21986;-67
2022/01/22 11:37:23;;;;;;;2.22;1.95;;;;;;;26.80;23.88;98530.91;1720411;83;20961;-63
2022/01/22 11:40:11;;;;;;;2.10;1.82;;;;;;;25.11;25.46;98541.75;1725092;83;21187;-65
2022/01/22 11:43:00;;;;;;;2.30;1.72;;;;;;;24.70;25.68;98543.99;1712725;83;20915;-65
2022/01/22 11:45:34;;;;;;;2.22;1.65;;;;;;;24.61;25.51;98554.41;1719941;81;20954;-67
2022/01/22 11:48:33;;;;;;;2.95;1.65;;;;;;;24.11;26.06;98560.97;1717087;81;20924;-70
2022/01/22 11:51:22;;;;;;;2.17;1.55;;;;;;;23.67;26.80;98558.92;1719688;83;20974;-66
2022/01/22 11:53:59;;;;;;;2.00;1.37;;;;;;;23.77;26.82;98557.56;1720169;83;21139;-67
2022/01/22 11:56:31;;;;;;;1.35;1.25;;;;;;;24.24;26.69;98557.09;1716141;83;20854;-64
2022/01/22 11:59:04;;;;;;;1.82;1.50;;;;;;;24.67;25.86;98549.99;1718420;81;21316;-63
2022/01/22 12:01:54;;;;;;;2.12;1.60;;;;;;;24.65;26.06;98556.27;1721881;81;21421;-63
2022/01/22 12:04:26;;;;;;;2.10;1.80;;;;;;;25.19;25.51;98556.10;1711752;81;20925;-64
2022/01/22 12:07:07;;;;;;;1.42;1.20;;;;;;;25.74;24.66;98550.09;1731067;81;21367;-66
2022/01/22 12:15:36;;;;;;;1.40;1.30;;;;;;;25.37;25.92;98562.19;1712679;81;20944;-62
2022/01/22 12:18:11;;;;;;;1.85;1.25;;;;;;;25.88;25.00;98566.55;1725144;81;20904;-71
2022/01/22 12:21:31;;;;;;;2.27;2.08;;;;;;;25.86;25.05;98568.77;1716614;83;21850;-65
2022/01/22 12:23:13;;;;;;;2.02;1.72;;;;;;;26.23;24.78;98569.39;1713440;83;20928;-64
2022/01/22 12:25:45;;;;;;;1.70;1.60;;;;;;;26.47;24.06;98580.23;1721122;83;20971;-66
2022/01/22 12:28:13;;;;;;;2.35;1.60;;;;;;;25.32;25.40;98589.45;1726820;83;20905;-64
2022/01/22 12:30:48;;;;;;;1.40;1.30;;;;;;;25.32;25.65;98589.45;1721689;81;21005;-64
2022/01/22 12:33:30;;;;;;;2.87;2.25;;;;;;;25.25;25.65;98597.16;1720707;81;21357;-63
2022/01/22 12:36:00;;;;;;;5.37;2.98;;;;;;;25.53;25.71;98603.70;1681852;81;20963;-63
2022/01/22 12:38:51;;;;;;;3.92;2.62;;;;;;;25.98;24.99;98610.57;1728304;82;20891;-66
2022/01/22 12:44:23;;;;;;;2.62;1.85;;;;;;;25.91;35.33;98618.29;1718176;81;20981;-64
2022/01/22 12:46:41;;;;;;;3.72;2.22;;;;;;;24.00;28.94;98628.08;1716572;81;21120;-64
2022/01/22 12:49:08;;;;;;;3.25;2.45;;;;;;;22.98;28.32;98632.00;1708461;81;21023;-64
2022/01/22 12:51:35;;;;;;;2.37;2.00;;;;;;;22.49;28.16;98638.94;1713758;81;20923;-64
2022/01/22 12:54:02;;;;;;;2.15;1.85;;;;;;;22.68;27.72;98645.53;1719772;81;20963;-65
2022/01/22 12:59:07;;;;;;;2.70;1.15;;;;;;;22.45;27.46;98659.51;1716078;82;21144;-66
2022/01/22 13:01:37;;;;;;;1.60;1.50;;;;;;;22.37;27.16;98660.05;1709366;81;20927;-64
2022/01/22 13:04:06;;;;;;;2.05;1.62;;;;;;;22.04;27.06;98662.08;1711464;81;20991;-64
2022/01/22 13:06:46;;;;;;;3.70;2.33;;;;;;;22.04;26.86;98666.67;1716461;83;21424;-64
2022/01/22 13:09:17;;;;;;;3.27;2.30;;;;;;;21.50;27.43;98679.58;1710697;81;21053;-64
2022/01/22 13:11:50;;;;;;;2.72;2.25;;;;;;;21.15;28.20;98692.80;1714044;83;21792;-64
2022/01/22 13:14:22;;;;;;;3.77;2.30;;;;;;;20.97;28.05;98695.84;1724713;81;20844;-62
2022/01/22 13:16:54;;;;;;;2.77;1.92;;;;;;;20.57;28.80;98694.91;1724300;81;21690;-67
2022/01/22 13:19:21;;;;;;;1.52;1.37;;;;;;;19.94;28.89;98698.95;1718851;81;20942;-63
2022/01/22 13:21:54;;;;;;;1.95;1.77;;;;;;;20.01;29.12;98693.36;1740117;82;21105;-63
2022/01/22 13:24:24;;;;;;;3.87;2.50;;;;;;;19.31;29.87;98703.36;1747117;81;21081;-61
2022/01/22 13:27:00;;;;;;;3.98;2.85;;;;;;;19.00;30.26;98700.68;1724183;82;20954;-68
2022/01/22 13:29:37;;;;;;;4.13;3.50;;;;;;;18.86;30.53;98699.86;1738191;82;20863;-66
2022/01/22 13:38:01;;;;;;;2.77;2.50;;;;;;;18.24;31.54;98724.47;1737875;82;21850;-70
2022/01/22 13:40:26;;;;;;;2.65;2.30;;;;;;;18.06;31.93;98730.00;1731570;82;20998;-68
2022/01/22 13:47:46;;;;;;;2.27;2.05;;;;;;;18.49;31.24;98741.99;1745576;82;21001;-67
2022/01/22 13:48:11;;;;;;;2.50;1.90;;;;;;;18.46;31.30;98744.30;1731607;82;20997;-67